Aeroporto :
LOGIN :

Iscrizione | Disclaimer

   EN    FR    IT 

 










Sommario :    VFR   VFR Marginale   IFR   IFR Intensivo   IFR Molto Intensivo
Visibilità : 
Base nubi : 
>= 8 km
>= 3000ft
5 / 8 km
1000 / 3000 ft
1500m / 5 km
500 / 1000 ft
800 / 1500m
200 / 500 ft
< 800m
< 200 ft
Simboli :   Temporali  Nebbia  Neve Forte  Precipitazioni Forti  Vento > 20 kt
SIGMETs :   Varie  Temporali  Ghiacco  Turbolenza  Onda orograficha  Ceneri Vulcaniche






- Altitudine del aeroporto : 50 ft
- Codice IATA : KOI


EGPA - Kirkwall

ULTIMO METAR :
  • 250550Z AUTO 20012KT 9999 NCD 07/05 Q1004

METARs OBSOLETI :
  • 250520Z AUTO 20011KT 9999 NCD 07/05 Q1005
  • 250450Z AUTO 21015KT 9999 NCD 07/06 Q1005
  • 250420Z AUTO 20012KT 9999 NCD 07/06 Q1005
  • 250350Z AUTO 20014KT 9999 NCD 07/06 Q1005
  • 250320Z AUTO 20014KT 9999 SCT028/// 07/06 Q1006

TAF TAF EGPA
Valido dal 25 a 06 ore il 25 a 15 ore UTC


250500Z 2506/2515 20012KT 9999 FEW016 SCT035
PROB30
TEMPO 2506/2515 22015G25KT



MetMap, La meteo Aeronautica in un colpo d'occhio ! - Copyright ORBIFLY Dicembre 2007 - Disclaimer

ORBIFLY MET'MAP TEAM :

Programmazione e sviluppo : Alexandra Zaïnal
Concezione : Baudouin d'Aumeries
Aiuto per la programmazione : Marc-Olivier Méhu
Supporto tecnico e logistico : Manuel Goepfert
Aiuto per la traduzione : Arnaldo La Scala

Contatto : metmap@orbifly.com




FONTI E CREDITI :

   NOAA